sensor_id;sensor_type;location;lat;lon;timestamp;pressure;altitude;pressure_sealevel;temperature;humidity
6196;BME280;3131;42.630;23.382;2023-04-29T00:01:15;94487.85;;;5.91;100.00
6196;BME280;3131;42.630;23.382;2023-04-29T00:03:45;94492.50;;;5.90;100.00
6196;BME280;3131;42.630;23.382;2023-04-29T00:06:14;94486.75;;;5.88;100.00
6196;BME280;3131;42.630;23.382;2023-04-29T00:08:44;94490.50;;;5.88;100.00
6196;BME280;3131;42.630;23.382;2023-04-29T00:11:14;94482.24;;;5.86;100.00
6196;BME280;3131;42.630;23.382;2023-04-29T00:13:43;94485.19;;;5.86;100.00
6196;BME280;3131;42.630;23.382;2023-04-29T00:16:13;94482.26;;;5.77;100.00
6196;BME280;3131;42.630;23.382;2023-04-29T00:18:42;94485.55;;;5.69;100.00
6196;BME280;3131;42.630;23.382;2023-04-29T00:21:12;94495.25;;;5.67;100.00
6196;BME280;3131;42.630;23.382;2023-04-29T00:23:41;94496.50;;;5.67;100.00
6196;BME280;3131;42.630;23.382;2023-04-29T00:26:11;94492.03;;;5.65;100.00
6196;BME280;3131;42.630;23.382;2023-04-29T00:28:41;94494.89;;;5.66;100.00
6196;BME280;3131;42.630;23.382;2023-04-29T00:31:10;94501.64;;;5.64;100.00
6196;BME280;3131;42.630;23.382;2023-04-29T00:33:39;94502.75;;;5.67;100.00
6196;BME280;3131;42.630;23.382;2023-04-29T00:36:09;94500.17;;;5.59;100.00
6196;BME280;3131;42.630;23.382;2023-04-29T00:41:20;94500.31;;;5.56;100.00
6196;BME280;3131;42.630;23.382;2023-04-29T00:43:49;94500.37;;;5.55;100.00
6196;BME280;3131;42.630;23.382;2023-04-29T00:46:19;94498.92;;;5.59;100.00
6196;BME280;3131;42.630;23.382;2023-04-29T00:48:48;94497.23;;;5.60;100.00
6196;BME280;3131;42.630;23.382;2023-04-29T00:51:18;94497.53;;;5.63;100.00
6196;BME280;3131;42.630;23.382;2023-04-29T00:53:48;94474.83;;;5.48;100.00
6196;BME280;3131;42.630;23.382;2023-04-29T00:56:18;94489.22;;;5.62;100.00
6196;BME280;3131;42.630;23.382;2023-04-29T00:58:48;94486.44;;;5.68;100.00
6196;BME280;3131;42.630;23.382;2023-04-29T01:01:20;94482.69;;;5.68;100.00
6196;BME280;3131;42.630;23.382;2023-04-29T01:03:57;94475.68;;;5.66;100.00
6196;BME280;3131;42.630;23.382;2023-04-29T01:09:17;94459.86;;;5.66;100.00
6196;BME280;3131;42.630;23.382;2023-04-29T01:14:39;94460.20;;;5.58;100.00
6196;BME280;3131;42.630;23.382;2023-04-29T01:17:14;94463.22;;;5.47;100.00
6196;BME280;3131;42.630;23.382;2023-04-29T01:19:47;94465.05;;;5.44;100.00
6196;BME280;3131;42.630;23.382;2023-04-29T01:22:17;94459.55;;;5.46;100.00
6196;BME280;3131;42.630;23.382;2023-04-29T01:24:48;94453.57;;;5.48;100.00
6196;BME280;3131;42.630;23.382;2023-04-29T01:27:22;94454.03;;;5.56;100.00
6196;BME280;3131;42.630;23.382;2023-04-29T01:29:55;94454.25;;;5.61;100.00
6196;BME280;3131;42.630;23.382;2023-04-29T01:32:32;94448.75;;;5.63;100.00
6196;BME280;3131;42.630;23.382;2023-04-29T01:35:03;94448.09;;;5.59;100.00
6196;BME280;3131;42.630;23.382;2023-04-29T01:40:21;94458.16;;;5.49;100.00
6196;BME280;3131;42.630;23.382;2023-04-29T01:45:35;94457.95;;;4.98;100.00
6196;BME280;3131;42.630;23.382;2023-04-29T01:48:08;94450.91;;;4.87;100.00
6196;BME280;3131;42.630;23.382;2023-04-29T01:50:39;94446.35;;;4.87;100.00
6196;BME280;3131;42.630;23.382;2023-04-29T01:53:08;94446.22;;;4.90;100.00
6196;BME280;3131;42.630;23.382;2023-04-29T01:55:38;94449.22;;;4.88;100.00
6196;BME280;3131;42.630;23.382;2023-04-29T01:58:07;94444.87;;;4.83;100.00
6196;BME280;3131;42.630;23.382;2023-04-29T02:00:37;94443.41;;;4.87;100.00
6196;BME280;3131;42.630;23.382;2023-04-29T02:03:07;94441.36;;;4.87;100.00
6196;BME280;3131;42.630;23.382;2023-04-29T02:05:36;94439.17;;;4.89;100.00
6196;BME280;3131;42.630;23.382;2023-04-29T02:08:06;94440.06;;;4.97;100.00
6196;BME280;3131;42.630;23.382;2023-04-29T02:10:36;94444.34;;;4.95;100.00
6196;BME280;3131;42.630;23.382;2023-04-29T02:13:05;94446.53;;;4.93;100.00
6196;BME280;3131;42.630;23.382;2023-04-29T02:15:35;94452.96;;;4.88;100.00
6196;BME280;3131;42.630;23.382;2023-04-29T02:18:04;94452.60;;;4.87;100.00
6196;BME280;3131;42.630;23.382;2023-04-29T02:20:34;94451.84;;;4.85;100.00
6196;BME280;3131;42.630;23.382;2023-04-29T02:23:03;94445.37;;;4.81;100.00
6196;BME280;3131;42.630;23.382;2023-04-29T02:25:33;94457.19;;;4.77;100.00
6196;BME280;3131;42.630;23.382;2023-04-29T02:28:03;94450.72;;;4.73;100.00
6196;BME280;3131;42.630;23.382;2023-04-29T02:30:32;94448.22;;;4.73;100.00
6196;BME280;3131;42.630;23.382;2023-04-29T02:33:02;94451.29;;;4.70;100.00
6196;BME280;3131;42.630;23.382;2023-04-29T02:35:31;94454.16;;;4.71;100.00
6196;BME280;3131;42.630;23.382;2023-04-29T02:38:01;94456.65;;;4.71;100.00
6196;BME280;3131;42.630;23.382;2023-04-29T02:40:30;94450.77;;;4.72;100.00
6196;BME280;3131;42.630;23.382;2023-04-29T02:42:59;94451.52;;;4.74;100.00
6196;BME280;3131;42.630;23.382;2023-04-29T02:48:16;94445.28;;;4.74;100.00
6196;BME280;3131;42.630;23.382;2023-04-29T02:50:45;94447.23;;;4.67;100.00
6196;BME280;3131;42.630;23.382;2023-04-29T02:53:15;94451.97;;;4.63;100.00
6196;BME280;3131;42.630;23.382;2023-04-29T02:55:44;94455.80;;;4.61;100.00
6196;BME280;3131;42.630;23.382;2023-04-29T02:58:14;94453.56;;;4.55;100.00
6196;BME280;3131;42.630;23.382;2023-04-29T03:00:43;94456.81;;;4.57;100.00
6196;BME280;3131;42.630;23.382;2023-04-29T03:03:12;94461.41;;;4.56;100.00
6196;BME280;3131;42.630;23.382;2023-04-29T03:05:42;94468.72;;;4.61;100.00
6196;BME280;3131;42.630;23.382;2023-04-29T03:08:12;94476.27;;;4.59;100.00
6196;BME280;3131;42.630;23.382;2023-04-29T03:10:42;94477.52;;;4.59;100.00
6196;BME280;3131;42.630;23.382;2023-04-29T03:15:53;94469.87;;;4.54;100.00
6196;BME280;3131;42.630;23.382;2023-04-29T03:18:24;94473.61;;;4.43;100.00
6196;BME280;3131;42.630;23.382;2023-04-29T03:20:54;94469.94;;;4.42;100.00
6196;BME280;3131;42.630;23.382;2023-04-29T03:23:23;94471.31;;;4.39;100.00
6196;BME280;3131;42.630;23.382;2023-04-29T03:25:53;94478.69;;;4.42;100.00
6196;BME280;3131;42.630;23.382;2023-04-29T03:28:24;94473.86;;;4.37;100.00
6196;BME280;3131;42.630;23.382;2023-04-29T03:33:33;94481.45;;;4.26;100.00
6196;BME280;3131;42.630;23.382;2023-04-29T03:36:02;94484.92;;;4.11;100.00
6196;BME280;3131;42.630;23.382;2023-04-29T03:38:32;94493.05;;;4.06;100.00
6196;BME280;3131;42.630;23.382;2023-04-29T03:41:02;94493.47;;;4.06;100.00
6196;BME280;3131;42.630;23.382;2023-04-29T03:43:31;94503.97;;;4.04;100.00
6196;BME280;3131;42.630;23.382;2023-04-29T03:46:01;94506.66;;;4.09;100.00
6196;BME280;3131;42.630;23.382;2023-04-29T03:48:30;94505.97;;;4.16;100.00
6196;BME280;3131;42.630;23.382;2023-04-29T03:51:00;94503.77;;;4.18;100.00
6196;BME280;3131;42.630;23.382;2023-04-29T03:56:09;94506.51;;;4.43;100.00
6196;BME280;3131;42.630;23.382;2023-04-29T03:58:38;94504.64;;;4.48;100.00
6196;BME280;3131;42.630;23.382;2023-04-29T04:01:08;94502.62;;;4.56;100.00
6196;BME280;3131;42.630;23.382;2023-04-29T04:03:37;94502.49;;;4.59;100.00
6196;BME280;3131;42.630;23.382;2023-04-29T04:06:06;94498.57;;;4.64;100.00
6196;BME280;3131;42.630;23.382;2023-04-29T04:08:36;94498.94;;;4.65;100.00
6196;BME280;3131;42.630;23.382;2023-04-29T04:11:05;94491.31;;;4.68;100.00
6196;BME280;3131;42.630;23.382;2023-04-29T04:13:36;94485.16;;;4.75;100.00
6196;BME280;3131;42.630;23.382;2023-04-29T04:16:07;94493.59;;;4.83;100.00
6196;BME280;3131;42.630;23.382;2023-04-29T04:18:37;94502.08;;;4.89;100.00
6196;BME280;3131;42.630;23.382;2023-04-29T04:23:48;94499.15;;;5.08;100.00
6196;BME280;3131;42.630;23.382;2023-04-29T04:26:18;94496.65;;;5.08;100.00
6196;BME280;3131;42.630;23.382;2023-04-29T04:28:48;94494.23;;;5.16;100.00
6196;BME280;3131;42.630;23.382;2023-04-29T04:31:17;94495.97;;;5.24;100.00
6196;BME280;3131;42.630;23.382;2023-04-29T04:33:47;94500.42;;;5.36;100.00
6196;BME280;3131;42.630;23.382;2023-04-29T04:36:16;94494.56;;;5.46;100.00
6196;BME280;3131;42.630;23.382;2023-04-29T04:38:45;94487.50;;;5.54;100.00
6196;BME280;3131;42.630;23.382;2023-04-29T04:41:15;94490.17;;;5.59;100.00
6196;BME280;3131;42.630;23.382;2023-04-29T04:43:44;94488.86;;;5.70;100.00
6196;BME280;3131;42.630;23.382;2023-04-29T04:46:14;94486.28;;;5.80;100.00
6196;BME280;3131;42.630;23.382;2023-04-29T04:48:44;94490.05;;;5.89;100.00
6196;BME280;3131;42.630;23.382;2023-04-29T04:51:14;94490.02;;;6.08;100.00
6196;BME280;3131;42.630;23.382;2023-04-29T04:53:43;94494.44;;;6.20;100.00
6196;BME280;3131;42.630;23.382;2023-04-29T04:56:13;94504.58;;;6.34;100.00
6196;BME280;3131;42.630;23.382;2023-04-29T04:58:42;94505.59;;;6.56;100.00
6196;BME280;3131;42.630;23.382;2023-04-29T05:01:12;94506.73;;;6.75;100.00
6196;BME280;3131;42.630;23.382;2023-04-29T05:03:41;94502.89;;;6.85;100.00
6196;BME280;3131;42.630;23.382;2023-04-29T05:06:11;94504.64;;;6.92;100.00
6196;BME280;3131;42.630;23.382;2023-04-29T05:08:40;94503.23;;;6.95;100.00
6196;BME280;3131;42.630;23.382;2023-04-29T05:11:16;94495.64;;;6.88;100.00
6196;BME280;3131;42.630;23.382;2023-04-29T05:13:46;94492.91;;;6.92;100.00
6196;BME280;3131;42.630;23.382;2023-04-29T05:16:16;94481.16;;;7.02;100.00
6196;BME280;3131;42.630;23.382;2023-04-29T05:18:45;94478.50;;;7.20;100.00
6196;BME280;3131;42.630;23.382;2023-04-29T05:23:56;94486.67;;;7.86;100.00
6196;BME280;3131;42.630;23.382;2023-04-29T05:26:26;94479.95;;;7.86;100.00
6196;BME280;3131;42.630;23.382;2023-04-29T05:28:55;94439.68;;;7.58;100.00
6196;BME280;3131;42.630;23.382;2023-04-29T05:31:24;94476.01;;;7.89;100.00
6196;BME280;3131;42.630;23.382;2023-04-29T05:33:55;94464.71;;;7.89;100.00
6196;BME280;3131;42.630;23.382;2023-04-29T05:36:25;94463.41;;;8.05;100.00
6196;BME280;3131;42.630;23.382;2023-04-29T05:38:54;94459.23;;;8.27;100.00
6196;BME280;3131;42.630;23.382;2023-04-29T05:41:24;94462.82;;;8.16;100.00
6196;BME280;3131;42.630;23.382;2023-04-29T05:43:54;94460.59;;;8.19;100.00
6196;BME280;3131;42.630;23.382;2023-04-29T05:46:23;94469.32;;;8.34;100.00
6196;BME280;3131;42.630;23.382;2023-04-29T05:48:53;94467.66;;;8.64;100.00
6196;BME280;3131;42.630;23.382;2023-04-29T05:51:22;94463.88;;;8.92;100.00
6196;BME280;3131;42.630;23.382;2023-04-29T05:53:52;94453.45;;;8.98;100.00
6196;BME280;3131;42.630;23.382;2023-04-29T05:56:21;94450.64;;;9.17;100.00
6196;BME280;3131;42.630;23.382;2023-04-29T05:58:51;94451.71;;;9.47;100.00
6196;BME280;3131;42.630;23.382;2023-04-29T06:01:20;94458.48;;;10.07;100.00
6196;BME280;3131;42.630;23.382;2023-04-29T13:50:46;94247.50;;;18.93;42.73
6196;BME280;3131;42.630;23.382;2023-04-29T13:53:15;94239.11;;;19.66;40.94
6196;BME280;3131;42.630;23.382;2023-04-29T13:55:45;94240.17;;;19.92;40.54
6196;BME280;3131;42.630;23.382;2023-04-29T13:58:14;94242.06;;;19.94;40.66
6196;BME280;3131;42.630;23.382;2023-04-29T14:00:43;94232.66;;;20.34;40.53
6196;BME280;3131;42.630;23.382;2023-04-29T14:03:12;94228.81;;;20.74;39.08
6196;BME280;3131;42.630;23.382;2023-04-29T14:05:42;94227.16;;;21.08;38.08
6196;BME280;3131;42.630;23.382;2023-04-29T14:08:11;94229.69;;;21.92;36.98
6196;BME280;3131;42.630;23.382;2023-04-29T14:10:40;94230.61;;;21.19;37.29
6196;BME280;3131;42.630;23.382;2023-04-29T14:13:10;94226.64;;;22.99;35.88
6196;BME280;3131;42.630;23.382;2023-04-29T14:15:39;94222.80;;;24.15;32.87
6196;BME280;3131;42.630;23.382;2023-04-29T14:18:08;94229.30;;;24.76;32.23
6196;BME280;3131;42.630;23.382;2023-04-29T14:20:38;94217.53;;;25.35;31.44
6196;BME280;3131;42.630;23.382;2023-04-29T14:28:32;94215.70;;;26.74;29.18
6196;BME280;3131;42.630;23.382;2023-04-29T14:31:01;94217.88;;;26.93;28.61
6196;BME280;3131;42.630;23.382;2023-04-29T14:33:30;94222.03;;;27.32;28.12
6196;BME280;3131;42.630;23.382;2023-04-29T14:35:59;94227.02;;;27.93;27.32
6196;BME280;3131;42.630;23.382;2023-04-29T14:38:28;94217.92;;;27.59;27.17
6196;BME280;3131;42.630;23.382;2023-04-29T14:40:57;94205.33;;;24.89;30.16
6196;BME280;3131;42.630;23.382;2023-04-29T14:43:26;94207.59;;;24.09;31.52
6196;BME280;3131;42.630;23.382;2023-04-29T14:45:56;94200.98;;;23.37;32.42
6196;BME280;3131;42.630;23.382;2023-04-29T14:48:25;94209.52;;;23.06;33.36
6196;BME280;3131;42.630;23.382;2023-04-29T14:50:55;94207.14;;;22.79;33.24
6196;BME280;3131;42.630;23.382;2023-04-29T14:53:24;94201.59;;;22.60;33.67
6196;BME280;3131;42.630;23.382;2023-04-29T14:55:54;94199.11;;;22.16;34.41
6196;BME280;3131;42.630;23.382;2023-04-29T14:58:23;94191.67;;;22.21;35.43
6196;BME280;3131;42.630;23.382;2023-04-29T15:00:52;94183.41;;;21.51;35.20
6196;BME280;3131;42.630;23.382;2023-04-29T15:03:22;94186.11;;;20.66;36.93
6196;BME280;3131;42.630;23.382;2023-04-29T15:05:51;94183.33;;;20.76;37.08
6196;BME280;3131;42.630;23.382;2023-04-29T15:08:21;94179.63;;;21.20;36.53
6196;BME280;3131;42.630;23.382;2023-04-29T15:10:50;94182.03;;;21.03;36.06
6196;BME280;3131;42.630;23.382;2023-04-29T15:13:19;94180.08;;;20.59;37.08
6196;BME280;3131;42.630;23.382;2023-04-29T15:15:49;94171.75;;;20.84;36.29
6196;BME280;3131;42.630;23.382;2023-04-29T15:18:18;94170.63;;;20.82;36.39
6196;BME280;3131;42.630;23.382;2023-04-29T15:20:49;94169.95;;;19.95;38.01
6196;BME280;3131;42.630;23.382;2023-04-29T15:23:18;94169.06;;;19.67;38.96
6196;BME280;3131;42.630;23.382;2023-04-29T15:25:48;94165.73;;;19.51;39.58
6196;BME280;3131;42.630;23.382;2023-04-29T15:28:17;94161.11;;;19.21;40.05
6196;BME280;3131;42.630;23.382;2023-04-29T15:30:46;94167.97;;;19.25;40.84
6196;BME280;3131;42.630;23.382;2023-04-29T15:33:15;94169.58;;;19.30;40.92
6196;BME280;3131;42.630;23.382;2023-04-29T15:35:44;94160.50;;;19.07;41.18
6196;BME280;3131;42.630;23.382;2023-04-29T15:38:13;94160.16;;;18.90;41.63
6196;BME280;3131;42.630;23.382;2023-04-29T15:40:42;94160.31;;;18.80;41.71
6196;BME280;3131;42.630;23.382;2023-04-29T15:43:12;94154.04;;;18.46;42.45
6196;BME280;3131;42.630;23.382;2023-04-29T15:45:42;94162.45;;;18.30;43.12
6196;BME280;3131;42.630;23.382;2023-04-29T15:48:11;94160.48;;;18.16;43.42
6196;BME280;3131;42.630;23.382;2023-04-29T15:50:40;94156.91;;;17.92;44.11
6196;BME280;3131;42.630;23.382;2023-04-29T15:53:09;94157.16;;;17.81;44.85
6196;BME280;3131;42.630;23.382;2023-04-29T15:55:38;94160.53;;;17.59;45.32
6196;BME280;3131;42.630;23.382;2023-04-29T15:58:08;94152.87;;;17.55;46.10
6196;BME280;3131;42.630;23.382;2023-04-29T16:00:37;94154.37;;;17.40;46.60
6196;BME280;3131;42.630;23.382;2023-04-29T16:03:07;94155.22;;;17.49;47.39
6196;BME280;3131;42.630;23.382;2023-04-29T16:05:36;94153.16;;;17.52;47.28
6196;BME280;3131;42.630;23.382;2023-04-29T16:08:06;94151.06;;;17.22;46.55
6196;BME280;3131;42.630;23.382;2023-04-29T16:10:35;94151.72;;;17.24;46.61
6196;BME280;3131;42.630;23.382;2023-04-29T16:13:04;94154.20;;;17.15;46.53
6196;BME280;3131;42.630;23.382;2023-04-29T16:15:34;94145.13;;;16.91;46.86
6196;BME280;3131;42.630;23.382;2023-04-29T16:18:03;94148.44;;;16.74;47.57
6196;BME280;3131;42.630;23.382;2023-04-29T16:23:14;94149.45;;;16.77;48.35
6196;BME280;3131;42.630;23.382;2023-04-29T16:25:43;94149.00;;;16.63;48.35
6196;BME280;3131;42.630;23.382;2023-04-29T16:28:13;94160.42;;;16.59;48.30
6196;BME280;3131;42.630;23.382;2023-04-29T16:30:42;94156.04;;;16.52;48.59
6196;BME280;3131;42.630;23.382;2023-04-29T16:33:11;94158.08;;;16.48;48.79
6196;BME280;3131;42.630;23.382;2023-04-29T16:35:41;94156.67;;;16.50;48.55
6196;BME280;3131;42.630;23.382;2023-04-29T16:38:10;94159.38;;;16.34;48.61
6196;BME280;3131;42.630;23.382;2023-04-29T18:00:50;94196.48;;;13.86;100.00
6196;BME280;3131;42.630;23.382;2023-04-29T18:03:19;94197.56;;;13.83;100.00
6196;BME280;3131;42.630;23.382;2023-04-29T18:05:50;94195.94;;;13.82;100.00
6196;BME280;3131;42.630;23.382;2023-04-29T18:08:20;94199.34;;;13.77;100.00
6196;BME280;3131;42.630;23.382;2023-04-29T18:10:49;94197.12;;;13.63;100.00
6196;BME280;3131;42.630;23.382;2023-04-29T18:13:19;94196.22;;;13.64;100.00
6196;BME280;3131;42.630;23.382;2023-04-29T18:15:48;94201.43;;;13.57;100.00
6196;BME280;3131;42.630;23.382;2023-04-29T18:18:17;94197.55;;;13.53;100.00
6196;BME280;3131;42.630;23.382;2023-04-29T18:20:47;94202.04;;;13.55;100.00
6196;BME280;3131;42.630;23.382;2023-04-29T18:23:16;94204.32;;;13.58;100.00
6196;BME280;3131;42.630;23.382;2023-04-29T18:25:46;94206.60;;;13.61;100.00
6196;BME280;3131;42.630;23.382;2023-04-29T18:28:16;94213.73;;;13.61;100.00
6196;BME280;3131;42.630;23.382;2023-04-29T18:30:46;94215.33;;;13.62;100.00
6196;BME280;3131;42.630;23.382;2023-04-29T18:33:16;94205.99;;;13.63;100.00
6196;BME280;3131;42.630;23.382;2023-04-29T18:35:45;94210.41;;;13.61;100.00
6196;BME280;3131;42.630;23.382;2023-04-29T18:38:14;94212.94;;;13.61;100.00
6196;BME280;3131;42.630;23.382;2023-04-29T18:40:44;94215.47;;;13.61;100.00
6196;BME280;3131;42.630;23.382;2023-04-29T18:43:13;94210.02;;;13.65;100.00
6196;BME280;3131;42.630;23.382;2023-04-29T18:45:44;94213.78;;;13.71;100.00
6196;BME280;3131;42.630;23.382;2023-04-29T18:48:13;94214.03;;;13.68;100.00
6196;BME280;3131;42.630;23.382;2023-04-29T18:50:43;94213.59;;;13.63;100.00
6196;BME280;3131;42.630;23.382;2023-04-29T18:53:12;94218.44;;;13.60;100.00
6196;BME280;3131;42.630;23.382;2023-04-29T18:55:41;94216.55;;;13.53;100.00
6196;BME280;3131;42.630;23.382;2023-04-29T18:58:11;94218.75;;;13.52;100.00
6196;BME280;3131;42.630;23.382;2023-04-29T19:00:40;94222.25;;;13.45;100.00
6196;BME280;3131;42.630;23.382;2023-04-29T19:03:09;94223.23;;;13.33;100.00
6196;BME280;3131;42.630;23.382;2023-04-29T19:05:38;94219.13;;;13.26;100.00
6196;BME280;3131;42.630;23.382;2023-04-29T19:08:08;94220.40;;;13.26;100.00
6196;BME280;3131;42.630;23.382;2023-04-29T19:13:23;94212.33;;;13.21;100.00
6196;BME280;3131;42.630;23.382;2023-04-29T19:15:53;94211.80;;;13.12;100.00
6196;BME280;3131;42.630;23.382;2023-04-29T19:18:22;94206.88;;;13.10;100.00
6196;BME280;3131;42.630;23.382;2023-04-29T19:20:52;94207.67;;;13.11;100.00
6196;BME280;3131;42.630;23.382;2023-04-29T19:23:22;94208.94;;;13.11;100.00
6196;BME280;3131;42.630;23.382;2023-04-29T19:25:51;94206.51;;;13.09;100.00
6196;BME280;3131;42.630;23.382;2023-04-29T19:28:21;94207.20;;;13.11;100.00
6196;BME280;3131;42.630;23.382;2023-04-29T19:30:50;94206.16;;;13.14;100.00
6196;BME280;3131;42.630;23.382;2023-04-29T19:33:19;94204.75;;;13.15;100.00
6196;BME280;3131;42.630;23.382;2023-04-29T19:35:48;94205.20;;;13.20;100.00
6196;BME280;3131;42.630;23.382;2023-04-29T19:38:17;94212.66;;;13.28;100.00
6196;BME280;3131;42.630;23.382;2023-04-29T19:40:46;94213.00;;;13.29;100.00
6196;BME280;3131;42.630;23.382;2023-04-29T19:43:15;94210.38;;;13.24;100.00
6196;BME280;3131;42.630;23.382;2023-04-29T19:45:45;94210.17;;;13.16;100.00
6196;BME280;3131;42.630;23.382;2023-04-29T19:48:14;94211.55;;;13.15;100.00
6196;BME280;3131;42.630;23.382;2023-04-29T19:50:43;94211.02;;;13.06;100.00
6196;BME280;3131;42.630;23.382;2023-04-29T19:53:12;94210.69;;;13.05;100.00
6196;BME280;3131;42.630;23.382;2023-04-29T19:58:28;94205.87;;;13.01;100.00
6196;BME280;3131;42.630;23.382;2023-04-29T20:00:57;94209.13;;;12.92;100.00
6196;BME280;3131;42.630;23.382;2023-04-29T20:03:26;94216.72;;;12.92;100.00
6196;BME280;3131;42.630;23.382;2023-04-29T20:05:55;94211.90;;;12.89;100.00
6196;BME280;3131;42.630;23.382;2023-04-29T20:08:26;94215.45;;;12.92;100.00
6196;BME280;3131;42.630;23.382;2023-04-29T20:10:55;94214.43;;;12.89;100.00
6196;BME280;3131;42.630;23.382;2023-04-29T20:13:25;94215.70;;;12.89;100.00
6196;BME280;3131;42.630;23.382;2023-04-29T20:15:54;94218.22;;;12.89;100.00
6196;BME280;3131;42.630;23.382;2023-04-29T20:21:03;94204.92;;;12.82;100.00
6196;BME280;3131;42.630;23.382;2023-04-29T20:23:33;94210.81;;;12.71;100.00
6196;BME280;3131;42.630;23.382;2023-04-29T20:26:02;94206.69;;;12.70;100.00
6196;BME280;3131;42.630;23.382;2023-04-29T20:28:31;94212.92;;;12.66;100.00
6196;BME280;3131;42.630;23.382;2023-04-29T20:31:01;94213.81;;;12.65;100.00
6196;BME280;3131;42.630;23.382;2023-04-29T20:33:30;94215.45;;;12.66;100.00
6196;BME280;3131;42.630;23.382;2023-04-29T20:35:59;94206.92;;;12.67;100.00
6196;BME280;3131;42.630;23.382;2023-04-29T20:38:30;94206.59;;;12.66;100.00
6196;BME280;3131;42.630;23.382;2023-04-29T20:41:02;94202.72;;;12.56;100.00
6196;BME280;3131;42.630;23.382;2023-04-29T20:43:34;94207.33;;;12.45;100.00
6196;BME280;3131;42.630;23.382;2023-04-29T20:46:03;94204.54;;;12.60;100.00
6196;BME280;3131;42.630;23.382;2023-04-29T20:48:32;94195.55;;;12.61;100.00
6196;BME280;3131;42.630;23.382;2023-04-29T20:53:42;94186.59;;;12.63;100.00
6196;BME280;3131;42.630;23.382;2023-04-29T20:56:12;94190.41;;;12.51;100.00
6196;BME280;3131;42.630;23.382;2023-04-29T20:58:42;94195.61;;;12.44;100.00
6196;BME280;3131;42.630;23.382;2023-04-29T21:01:11;94196.30;;;12.46;100.00
6196;BME280;3131;42.630;23.382;2023-04-29T21:03:41;94199.41;;;12.44;100.00
6196;BME280;3131;42.630;23.382;2023-04-29T21:06:10;94197.91;;;12.42;100.00
6196;BME280;3131;42.630;23.382;2023-04-29T21:08:39;94199.51;;;12.43;100.00
6196;BME280;3131;42.630;23.382;2023-04-29T21:11:09;94191.72;;;12.40;100.00
6196;BME280;3131;42.630;23.382;2023-04-29T21:13:38;94194.48;;;12.37;100.00
6196;BME280;3131;42.630;23.382;2023-04-29T21:16:07;94202.51;;;12.37;100.00
6196;BME280;3131;42.630;23.382;2023-04-29T21:18:37;94200.25;;;12.28;100.00
6196;BME280;3131;42.630;23.382;2023-04-29T21:21:07;94199.33;;;12.18;100.00
6196;BME280;3131;42.630;23.382;2023-04-29T21:23:37;94198.76;;;12.14;100.00
6196;BME280;3131;42.630;23.382;2023-04-29T21:26:06;94193.04;;;12.06;100.00
6196;BME280;3131;42.630;23.382;2023-04-29T21:28:35;94190.05;;;12.01;100.00
6196;BME280;3131;42.630;23.382;2023-04-29T21:31:04;94198.45;;;11.96;100.00
6196;BME280;3131;42.630;23.382;2023-04-29T21:33:35;94197.75;;;11.94;100.00
6196;BME280;3131;42.630;23.382;2023-04-29T21:36:06;94194.77;;;11.89;100.00
6196;BME280;3131;42.630;23.382;2023-04-29T21:38:36;94193.86;;;11.84;100.00
6196;BME280;3131;42.630;23.382;2023-04-29T21:41:09;94197.74;;;11.83;100.00
6196;BME280;3131;42.630;23.382;2023-04-29T21:43:40;94190.50;;;11.84;100.00
6196;BME280;3131;42.630;23.382;2023-04-29T21:46:09;94191.33;;;11.84;100.00
6196;BME280;3131;42.630;23.382;2023-04-29T21:48:39;94181.42;;;11.81;100.00
6196;BME280;3131;42.630;23.382;2023-04-29T21:51:08;94180.86;;;11.78;100.00
6196;BME280;3131;42.630;23.382;2023-04-29T21:53:37;94181.78;;;11.71;100.00
6196;BME280;3131;42.630;23.382;2023-04-29T21:56:08;94185.56;;;11.71;100.00
6196;BME280;3131;42.630;23.382;2023-04-29T22:01:14;94187.41;;;11.80;100.00
6196;BME280;3131;42.630;23.382;2023-04-29T22:03:54;94198.52;;;11.67;100.00
6196;BME280;3131;42.630;23.382;2023-04-29T22:06:23;94189.00;;;11.59;100.00
6196;BME280;3131;42.630;23.382;2023-04-29T22:08:53;94185.67;;;11.53;100.00
6196;BME280;3131;42.630;23.382;2023-04-29T22:11:22;94192.06;;;11.34;100.00
6196;BME280;3131;42.630;23.382;2023-04-29T22:13:52;94190.45;;;11.17;100.00
6196;BME280;3131;42.630;23.382;2023-04-29T22:16:21;94184.22;;;11.09;100.00
6196;BME280;3131;42.630;23.382;2023-04-29T22:18:50;94185.12;;;11.03;100.00
6196;BME280;3131;42.630;23.382;2023-04-29T22:21:21;94182.13;;;11.03;100.00
6196;BME280;3131;42.630;23.382;2023-04-29T22:23:50;94181.46;;;11.01;100.00
6196;BME280;3131;42.630;23.382;2023-04-29T22:26:19;94183.05;;;11.02;100.00
6196;BME280;3131;42.630;23.382;2023-04-29T22:28:49;94179.73;;;11.02;100.00
6196;BME280;3131;42.630;23.382;2023-04-29T22:31:18;94179.61;;;11.03;100.00
6196;BME280;3131;42.630;23.382;2023-04-29T22:33:48;94177.23;;;11.07;100.00
6196;BME280;3131;42.630;23.382;2023-04-29T22:36:17;94182.16;;;11.09;100.00
6196;BME280;3131;42.630;23.382;2023-04-29T22:38:47;94179.88;;;11.11;100.00
6196;BME280;3131;42.630;23.382;2023-04-29T22:41:16;94179.75;;;11.13;100.00
6196;BME280;3131;42.630;23.382;2023-04-29T22:43:46;94173.09;;;11.12;100.00
6196;BME280;3131;42.630;23.382;2023-04-29T22:46:16;94170.34;;;11.09;100.00
6196;BME280;3131;42.630;23.382;2023-04-29T22:48:45;94164.25;;;11.06;100.00
6196;BME280;3131;42.630;23.382;2023-04-29T22:51:14;94168.82;;;10.96;100.00
6196;BME280;3131;42.630;23.382;2023-04-29T22:53:44;94165.48;;;10.89;100.00
6196;BME280;3131;42.630;23.382;2023-04-29T22:56:14;94164.78;;;10.82;100.00
6196;BME280;3131;42.630;23.382;2023-04-29T22:58:43;94164.84;;;10.75;100.00
6196;BME280;3131;42.630;23.382;2023-04-29T23:01:16;94165.50;;;10.65;100.00
6196;BME280;3131;42.630;23.382;2023-04-29T23:03:47;94162.52;;;10.60;100.00
6196;BME280;3131;42.630;23.382;2023-04-29T23:06:17;94153.08;;;10.51;100.00
6196;BME280;3131;42.630;23.382;2023-04-29T23:08:48;94150.66;;;10.44;100.00
6196;BME280;3131;42.630;23.382;2023-04-29T23:11:17;94143.16;;;10.37;100.00
6196;BME280;3131;42.630;23.382;2023-04-29T23:13:47;94142.56;;;10.33;100.00
6196;BME280;3131;42.630;23.382;2023-04-29T23:16:16;94140.97;;;10.32;100.00
6196;BME280;3131;42.630;23.382;2023-04-29T23:18:45;94139.13;;;10.29;100.00